Time,TemperatureF,DewpointF,PressureIn,WindDirection,WindDirectionDegrees,WindSpeedMPH,WindSpeedGustMPH,Humidity,HourlyPrecipIn,Conditions,Clouds,dailyrainin,SoftwareType,DateUTC
2013-07-08 00:01:00,58.5,51.0,29.82,ESE,109,0.0,2.0,76,0.00,,---,0.00,VWS V14.01,2013-07-08 07:01:00,
2013-07-08 00:06:00,58.4,51.2,29.82,ESE,109,0.0,0.0,77,0.00,,---,0.00,VWS V14.01,2013-07-08 07:06:00,
2013-07-08 00:11:00,58.3,51.5,29.83,East,100,0.0,2.0,78,0.00,,---,0.00,VWS V14.01,2013-07-08 07:11:00,
2013-07-08 00:16:00,58.2,51.4,29.83,ESE,105,0.0,1.0,78,0.00,,---,0.00,VWS V14.01,2013-07-08 07:16:00,
2013-07-08 00:21:00,58.0,51.2,29.83,ESE,105,0.0,1.0,78,0.00,,---,0.00,VWS V14.01,2013-07-08 07:21:00,
2013-07-08 00:26:00,57.8,51.0,29.83,ESE,105,0.0,0.0,78,0.00,,---,0.00,VWS V14.01,2013-07-08 07:26:00,
2013-07-08 00:31:00,57.7,51.2,29.82,ESE,105,0.0,0.0,79,0.00,,---,0.00,VWS V14.01,2013-07-08 07:31:00,
2013-07-08 00:36:00,57.5,51.0,29.82,East,89,0.0,1.0,79,0.00,,---,0.00,VWS V14.01,2013-07-08 07:36:00,
2013-07-08 00:41:00,57.3,51.2,29.82,ESE,113,0.0,3.0,80,0.00,,---,0.00,VWS V14.01,2013-07-08 07:41:00,
2013-07-08 00:46:00,57.2,51.1,29.83,ESE,113,1.0,2.0,80,0.00,,---,0.00,VWS V14.01,2013-07-08 07:46:00,
2013-07-08 00:51:00,57.1,51.3,29.83,ESE,117,0.0,2.0,81,0.00,,---,0.00,VWS V14.01,2013-07-08 07:51:00,
2013-07-08 00:56:00,56.9,51.1,29.83,East,98,0.0,2.0,81,0.00,,---,0.00,VWS V14.01,2013-07-08 07:56:00,
2013-07-08 01:01:00,56.9,51.5,29.83,ESE,112,1.0,4.0,82,0.00,,---,0.00,VWS V14.01,2013-07-08 08:01:00,
2013-07-08 01:06:00,56.9,51.5,29.83,ESE,117,3.0,4.0,82,0.00,,---,0.00,VWS V14.01,2013-07-08 08:06:00,
2013-07-08 01:11:00,56.9,51.5,29.83,ESE,122,1.0,4.0,82,0.00,,---,0.00,VWS V14.01,2013-07-08 08:11:00,
2013-07-08 01:16:00,56.9,51.5,29.83,ESE,108,0.0,3.0,82,0.00,,---,0.00,VWS V14.01,2013-07-08 08:16:00,
2013-07-08 01:21:00,56.9,51.5,29.83,East,98,0.0,4.0,82,0.00,,---,0.00,VWS V14.01,2013-07-08 08:21:00,
2013-07-08 01:26:00,56.9,51.5,29.83,ESE,108,0.0,1.0,82,0.00,,---,0.00,VWS V14.01,2013-07-08 08:26:00,
2013-07-08 01:31:00,56.9,51.5,29.83,ESE,115,0.0,2.0,82,0.00,,---,0.00,VWS V14.01,2013-07-08 08:31:00,
2013-07-08 01:36:00,56.8,51.4,29.83,ESE,115,0.0,1.0,82,0.00,,---,0.00,VWS V14.01,2013-07-08 08:36:00,
2013-07-08 01:41:00,56.7,51.6,29.82,ESE,105,0.0,1.0,83,0.00,,---,0.00,VWS V14.01,2013-07-08 08:41:00,
2013-07-08 01:46:00,56.5,51.4,29.83,ESE,105,0.0,1.0,83,0.00,,---,0.00,VWS V14.01,2013-07-08 08:46:00,
2013-07-08 01:51:00,56.3,51.2,29.82,East,96,1.0,3.0,83,0.00,,---,0.00,VWS V14.01,2013-07-08 08:51:00,
2013-07-08 01:56:00,56.2,51.4,29.83,SE,126,0.0,3.0,84,0.00,,---,0.00,VWS V14.01,2013-07-08 08:56:00,
2013-07-08 02:01:00,56.1,51.3,29.83,ESE,105,0.0,3.0,84,0.00,,---,0.00,VWS V14.01,2013-07-08 09:01:00,
2013-07-08 02:06:00,55.9,51.1,29.82,ESE,111,0.0,3.0,84,0.00,,---,0.00,VWS V14.01,2013-07-08 09:06:00,
2013-07-08 02:11:00,55.8,51.0,29.83,East,90,2.0,4.0,84,0.00,,---,0.00,VWS V14.01,2013-07-08 09:11:00,
2013-07-08 02:16:00,55.6,51.2,29.83,NE,54,0.0,3.0,85,0.00,,---,0.00,VWS V14.01,2013-07-08 09:16:00,
2013-07-08 02:21:00,55.7,51.3,29.83,ENE,61,0.0,3.0,85,0.00,,---,0.00,VWS V14.01,2013-07-08 09:21:00,
2013-07-08 02:26:00,55.7,51.3,29.83,East,88,1.0,2.0,85,0.00,,---,0.00,VWS V14.01,2013-07-08 09:26:00,
2013-07-08 02:31:00,55.6,51.2,29.83,North,11,0.0,2.0,85,0.00,,---,0.00,VWS V14.01,2013-07-08 09:31:00,
2013-07-08 02:36:00,55.7,51.6,29.83,NE,51,0.0,0.0,86,0.00,,---,0.00,VWS V14.01,2013-07-08 09:36:00,
2013-07-08 02:41:00,55.7,51.6,29.83,East,90,1.0,4.0,86,0.00,,---,0.00,VWS V14.01,2013-07-08 09:41:00,
2013-07-08 02:46:00,55.9,51.8,29.83,East,94,3.0,4.0,86,0.00,,---,0.00,VWS V14.01,2013-07-08 09:46:00,
2013-07-08 02:51:00,56.2,51.8,29.83,SE,136,0.0,4.0,85,0.00,,---,0.00,VWS V14.01,2013-07-08 09:51:00,
2013-07-08 02:56:00,56.3,51.9,29.83,SE,137,0.0,0.0,85,0.00,,---,0.00,VWS V14.01,2013-07-08 09:56:00,
2013-07-08 03:01:00,56.2,51.8,29.83,SE,137,0.0,0.0,85,0.00,,---,0.00,VWS V14.01,2013-07-08 10:01:00,
2013-07-08 03:06:00,56.0,51.2,29.83,SE,137,0.0,0.0,84,0.00,,---,0.00,VWS V14.01,2013-07-08 10:06:00,
2013-07-08 03:11:00,55.7,51.3,29.83,SE,137,0.0,0.0,85,0.00,,---,0.00,VWS V14.01,2013-07-08 10:11:00,
2013-07-08 03:16:00,55.3,50.9,29.83,SSW,192,0.0,0.0,85,0.00,,---,0.00,VWS V14.01,2013-07-08 10:16:00,
2013-07-08 03:21:00,54.9,50.5,29.83,SSW,192,0.0,1.0,85,0.00,,---,0.00,VWS V14.01,2013-07-08 10:21:00,
2013-07-08 03:26:00,54.6,50.5,29.84,SSW,192,0.0,0.0,86,0.00,,---,0.00,VWS V14.01,2013-07-08 10:26:00,
2013-07-08 03:30:00,54.4,50.3,29.84,SSW,192,0.0,0.0,86,0.00,,---,0.00,VWS V14.01,2013-07-08 10:30:00,
2013-07-08 03:35:00,54.1,50.0,29.84,SSW,192,0.0,0.0,86,0.00,,---,0.00,VWS V14.01,2013-07-08 10:35:00,
2013-07-08 03:40:00,53.9,50.1,29.84,SSW,192,0.0,0.0,87,0.00,,---,0.00,VWS V14.01,2013-07-08 10:40:00,
2013-07-08 03:45:00,53.7,49.9,29.84,SSW,192,0.0,0.0,87,0.00,,---,0.00,VWS V14.01,2013-07-08 10:45:00,
2013-07-08 03:50:00,53.6,49.8,29.84,SSW,192,0.0,0.0,87,0.00,,---,0.00,VWS V14.01,2013-07-08 10:50:00,
2013-07-08 03:55:00,53.4,49.6,29.84,SSW,192,0.0,0.0,87,0.00,,---,0.00,VWS V14.01,2013-07-08 10:55:00,
2013-07-08 04:00:00,53.2,49.4,29.84,SSW,192,0.0,0.0,87,0.00,,---,0.00,VWS V14.01,2013-07-08 11:00:00,
2013-07-08 04:05:00,53.0,49.2,29.84,SSW,192,0.0,0.0,87,0.00,,---,0.00,VWS V14.01,2013-07-08 11:05:00,
2013-07-08 04:10:00,52.8,49.3,29.85,SSW,192,0.0,0.0,88,0.00,,---,0.00,VWS V14.01,2013-07-08 11:10:00,
2013-07-08 04:15:00,52.6,49.2,29.85,SSW,192,0.0,0.0,88,0.00,,---,0.00,VWS V14.01,2013-07-08 11:15:00,
2013-07-08 04:20:00,52.4,49.0,29.84,SSW,192,0.0,0.0,88,0.00,,---,0.00,VWS V14.01,2013-07-08 11:20:00,
2013-07-08 04:25:00,52.3,48.9,29.84,SSW,192,0.0,0.0,88,0.00,,---,0.00,VWS V14.01,2013-07-08 11:25:00,
2013-07-08 04:30:00,52.1,48.7,29.84,SSW,192,0.0,0.0,88,0.00,,---,0.00,VWS V14.01,2013-07-08 11:30:00,
2013-07-08 04:35:00,51.9,48.5,29.84,SSW,192,0.0,0.0,88,0.00,,---,0.00,VWS V14.01,2013-07-08 11:35:00,
2013-07-08 04:40:00,51.7,48.6,29.84,SSW,192,0.0,0.0,89,0.00,,---,0.00,VWS V14.01,2013-07-08 11:40:00,
2013-07-08 04:45:00,51.5,48.4,29.84,SSW,192,0.0,0.0,89,0.00,,---,0.00,VWS V14.01,2013-07-08 11:45:00,
2013-07-08 04:50:00,51.4,48.3,29.85,SSW,192,0.0,0.0,89,0.00,,---,0.00,VWS V14.01,2013-07-08 11:50:00,
2013-07-08 04:55:00,51.3,48.2,29.84,SSW,192,0.0,0.0,89,0.00,,---,0.00,VWS V14.01,2013-07-08 11:55:00,
2013-07-08 05:00:00,51.2,48.1,29.84,SSW,192,0.0,0.0,89,0.00,,---,0.00,VWS V14.01,2013-07-08 12:00:00,
2013-07-08 05:05:00,51.1,48.0,29.85,SSW,192,0.0,0.0,89,0.00,,---,0.00,VWS V14.01,2013-07-08 12:05:00,
2013-07-08 05:10:00,51.0,47.9,29.85,SSW,192,0.0,0.0,89,0.00,,---,0.00,VWS V14.01,2013-07-08 12:10:00,
2013-07-08 05:15:00,50.8,47.7,29.85,SSW,192,0.0,0.0,89,0.00,,---,0.00,VWS V14.01,2013-07-08 12:15:00,
2013-07-08 05:20:00,50.7,47.9,29.85,SSW,192,0.0,0.0,90,0.00,,---,0.00,VWS V14.01,2013-07-08 12:20:00,
2013-07-08 05:25:00,50.5,47.4,29.85,SSW,192,0.0,0.0,89,0.00,,---,0.00,VWS V14.01,2013-07-08 12:25:00,
2013-07-08 05:30:00,50.4,47.6,29.85,SSW,192,0.0,0.0,90,0.00,,---,0.00,VWS V14.01,2013-07-08 12:30:00,
2013-07-08 05:35:00,50.3,47.5,29.86,SSW,192,0.0,0.0,90,0.00,,---,0.00,VWS V14.01,2013-07-08 12:35:00,
2013-07-08 05:40:00,50.1,47.3,29.86,SSW,192,0.0,0.0,90,0.00,,---,0.00,VWS V14.01,2013-07-08 12:40:00,
2013-07-08 05:45:00,50.0,47.2,29.86,SSW,192,0.0,0.0,90,0.00,,---,0.00,VWS V14.01,2013-07-08 12:45:00,
2013-07-08 05:50:00,49.9,47.1,29.86,SSW,192,0.0,0.0,90,0.00,,---,0.00,VWS V14.01,2013-07-08 12:50:00,
2013-07-08 05:55:00,49.8,47.0,29.86,SSW,192,0.0,0.0,90,0.00,,---,0.00,VWS V14.01,2013-07-08 12:55:00,
2013-07-08 06:00:00,49.7,46.9,29.86,SSW,192,0.0,0.0,90,0.00,,---,0.00,VWS V14.01,2013-07-08 13:00:00,
2013-07-08 06:05:00,49.8,47.3,29.87,SSW,192,0.0,0.0,91,0.00,,---,0.00,VWS V14.01,2013-07-08 13:05:00,
2013-07-08 06:10:00,49.7,46.9,29.87,SSW,192,0.0,0.0,90,0.00,,---,0.00,VWS V14.01,2013-07-08 13:10:00,
2013-07-08 06:15:00,49.8,47.3,29.87,SSW,192,0.0,0.0,91,0.00,,---,0.00,VWS V14.01,2013-07-08 13:15:00,
2013-07-08 06:20:00,49.8,47.3,29.87,SSW,192,0.0,0.0,91,0.00,,---,0.00,VWS V14.01,2013-07-08 13:20:00,
2013-07-08 06:25:00,49.9,47.4,29.87,SSW,192,0.0,0.0,91,0.00,,---,0.00,VWS V14.01,2013-07-08 13:25:00,
2013-07-08 06:30:00,50.1,47.6,29.87,SSW,192,0.0,0.0,91,0.00,,---,0.00,VWS V14.01,2013-07-08 13:30:00,
2013-07-08 06:35:00,50.5,48.3,29.87,SSW,192,0.0,0.0,92,0.00,,---,0.00,VWS V14.01,2013-07-08 13:35:00,
2013-07-08 06:40:00,50.9,48.7,29.87,SSW,192,0.0,0.0,92,0.00,,---,0.00,VWS V14.01,2013-07-08 13:40:00,
2013-07-08 06:45:00,51.5,49.3,29.88,SSW,192,0.0,0.0,92,0.00,,---,0.00,VWS V14.01,2013-07-08 13:45:00,
2013-07-08 06:50:00,52.3,50.0,29.88,SSW,192,0.0,0.0,92,0.00,,---,0.00,VWS V14.01,2013-07-08 13:50:00,
2013-07-08 06:55:00,52.8,50.5,29.88,SSW,192,0.0,0.0,92,0.00,,---,0.00,VWS V14.01,2013-07-08 13:55:00,
2013-07-08 07:00:00,53.2,50.9,29.88,SSW,192,0.0,0.0,92,0.00,,---,0.00,VWS V14.01,2013-07-08 14:00:00,
2013-07-08 07:05:00,53.9,51.6,29.88,SSW,192,0.0,0.0,92,0.00,,---,0.00,VWS V14.01,2013-07-08 14:05:00,
2013-07-08 07:10:00,54.1,51.2,29.88,SSW,192,0.0,0.0,90,0.00,,---,0.00,VWS V14.01,2013-07-08 14:10:00,
2013-07-08 07:15:00,54.3,51.4,29.88,SSW,192,0.0,0.0,90,0.00,,---,0.00,VWS V14.01,2013-07-08 14:15:00,
2013-07-08 07:20:00,54.7,51.5,29.88,SSW,207,0.0,0.0,89,0.00,,---,0.00,VWS V14.01,2013-07-08 14:20:00,
2013-07-08 07:25:00,55.2,51.7,29.89,SSW,207,0.0,0.0,88,0.00,,---,0.00,VWS V14.01,2013-07-08 14:25:00,
2013-07-08 07:30:00,55.9,52.4,29.88,SSW,208,0.0,1.0,88,0.00,,---,0.00,VWS V14.01,2013-07-08 14:30:00,
2013-07-08 07:35:00,56.8,52.7,29.88,SW,233,0.0,0.0,86,0.00,,---,0.00,VWS V14.01,2013-07-08 14:35:00,
2013-07-08 07:40:00,57.9,53.4,29.89,West,276,0.0,1.0,85,0.00,,---,0.00,VWS V14.01,2013-07-08 14:40:00,
2013-07-08 07:45:00,59.0,53.5,29.89,West,276,0.0,0.0,82,0.00,,---,0.00,VWS V14.01,2013-07-08 14:45:00,
2013-07-08 07:50:00,60.0,54.2,29.89,West,276,0.0,0.0,81,0.00,,---,0.00,VWS V14.01,2013-07-08 14:50:00,
2013-07-08 07:55:00,61.0,54.1,29.89,NE,52,0.0,1.0,78,0.00,,---,0.00,VWS V14.01,2013-07-08 14:55:00,
2013-07-08 08:00:00,61.9,54.6,29.89,NE,53,0.0,1.0,77,0.00,,---,0.00,VWS V14.01,2013-07-08 15:00:00,
2013-07-08 08:05:00,62.6,54.2,29.89,NE,53,0.0,0.0,74,0.00,,---,0.00,VWS V14.01,2013-07-08 15:05:00,
2013-07-08 08:10:00,63.0,54.6,29.89,NE,53,0.0,0.0,74,0.00,,---,0.00,VWS V14.01,2013-07-08 15:10:00,
2013-07-08 08:15:00,63.8,54.6,29.89,NE,54,2.0,2.0,72,0.00,,---,0.00,VWS V14.01,2013-07-08 15:15:00,
2013-07-08 08:20:00,64.4,54.4,29.89,NNE,20,1.0,2.0,70,0.00,,---,0.00,VWS V14.01,2013-07-08 15:20:00,
2013-07-08 08:25:00,64.9,54.5,29.89,ESE,114,0.0,3.0,69,0.00,,---,0.00,VWS V14.01,2013-07-08 15:25:00,
2013-07-08 08:30:00,65.4,54.2,29.90,ENE,78,1.0,5.0,67,0.00,,---,0.00,VWS V14.01,2013-07-08 15:30:00,
2013-07-08 08:35:00,65.5,54.3,29.90,NE,48,5.0,6.0,67,0.00,,---,0.00,VWS V14.01,2013-07-08 15:35:00,
2013-07-08 08:40:00,65.5,54.3,29.90,East,97,1.0,6.0,67,0.00,,---,0.00,VWS V14.01,2013-07-08 15:40:00,
2013-07-08 08:45:00,65.9,54.7,29.90,ESE,121,0.0,4.0,67,0.00,,---,0.00,VWS V14.01,2013-07-08 15:45:00,
2013-07-08 08:50:00,66.6,54.9,29.90,ESE,104,1.0,5.0,66,0.00,,---,0.00,VWS V14.01,2013-07-08 15:50:00,
2013-07-08 08:55:00,67.2,54.6,29.90,ENE,67,1.0,6.0,64,0.00,,---,0.00,VWS V14.01,2013-07-08 15:55:00,
2013-07-08 09:00:00,67.4,54.4,29.90,ESE,111,1.0,6.0,63,0.00,,---,0.00,VWS V14.01,2013-07-08 16:00:00,
2013-07-08 09:05:00,67.5,54.5,29.90,SE,128,1.0,5.0,63,0.00,,---,0.00,VWS V14.01,2013-07-08 16:05:00,
2013-07-08 09:10:00,67.7,54.2,29.90,ENE,60,2.0,6.0,62,0.00,,---,0.00,VWS V14.01,2013-07-08 16:10:00,
2013-07-08 09:15:00,68.0,55.0,29.90,NE,36,5.0,5.0,63,0.00,,---,0.00,VWS V14.01,2013-07-08 16:15:00,
2013-07-08 09:20:00,68.4,54.9,29.90,ENE,74,1.0,6.0,62,0.00,,---,0.00,VWS V14.01,2013-07-08 16:20:00,
2013-07-08 09:25:00,68.9,55.4,29.90,East,100,0.0,6.0,62,0.00,,---,0.00,VWS V14.01,2013-07-08 16:25:00,
2013-07-08 09:30:00,69.5,54.6,29.90,ENE,76,1.0,7.0,59,0.00,,---,0.00,VWS V14.01,2013-07-08 16:30:00,
2013-07-08 09:35:00,69.9,55.4,29.90,ENE,65,1.0,5.0,60,0.00,,---,0.00,VWS V14.01,2013-07-08 16:35:00,
2013-07-08 09:40:00,70.3,55.3,29.90,SE,135,4.0,5.0,59,0.00,,---,0.00,VWS V14.01,2013-07-08 16:40:00,
2013-07-08 09:45:00,70.5,55.0,29.89,NE,45,2.0,4.0,58,0.00,,---,0.00,VWS V14.01,2013-07-08 16:45:00,
2013-07-08 09:50:00,70.6,54.6,29.90,ESE,104,0.0,7.0,57,0.00,,---,0.00,VWS V14.01,2013-07-08 16:50:00,
2013-07-08 09:55:00,70.6,54.6,29.90,NNE,18,1.0,10.0,57,0.00,,---,0.00,VWS V14.01,2013-07-08 16:55:00,
2013-07-08 10:00:00,71.2,55.7,29.89,NE,40,0.0,10.0,58,0.00,,---,0.00,VWS V14.01,2013-07-08 17:00:00,
2013-07-08 10:05:00,72.4,55.8,29.90,East,79,0.0,4.0,56,0.00,,---,0.00,VWS V14.01,2013-07-08 17:05:00,
2013-07-08 10:10:00,73.0,55.4,29.90,NW,309,1.0,6.0,54,0.00,,---,0.00,VWS V14.01,2013-07-08 17:10:00,
2013-07-08 10:15:00,73.5,55.9,29.90,West,278,0.0,5.0,54,0.00,,---,0.00,VWS V14.01,2013-07-08 17:15:00,
2013-07-08 10:20:00,74.3,56.1,29.90,WSW,252,0.0,5.0,53,0.00,,---,0.00,VWS V14.01,2013-07-08 17:20:00,
2013-07-08 10:25:00,74.5,56.3,29.90,WNW,290,0.0,4.0,53,0.00,,---,0.00,VWS V14.01,2013-07-08 17:25:00,
2013-07-08 10:30:00,75.1,56.3,29.89,NW,323,0.0,4.0,52,0.00,,---,0.00,VWS V14.01,2013-07-08 17:30:00,
2013-07-08 10:35:00,75.5,56.1,29.90,NW,323,0.0,1.0,51,0.00,,---,0.00,VWS V14.01,2013-07-08 17:35:00,
2013-07-08 10:41:00,76.1,55.6,29.90,West,267,1.0,5.0,49,0.00,,---,0.00,VWS V14.01,2013-07-08 17:41:00,
2013-07-08 10:46:00,75.7,55.8,29.90,SW,230,0.0,2.0,50,0.00,,---,0.00,VWS V14.01,2013-07-08 17:46:00,
2013-07-08 10:51:00,75.5,55.6,29.90,NNW,335,0.0,4.0,50,0.00,,---,0.00,VWS V14.01,2013-07-08 17:51:00,
2013-07-08 10:56:00,76.2,55.1,29.90,ENE,71,1.0,4.0,48,0.00,,---,0.00,VWS V14.01,2013-07-08 17:56:00,
2013-07-08 11:01:00,77.3,55.5,29.90,NNW,331,3.0,4.0,47,0.00,,---,0.00,VWS V14.01,2013-07-08 18:01:00,
2013-07-08 11:06:00,78.1,55.0,29.90,NW,321,1.0,3.0,45,0.00,,---,0.00,VWS V14.01,2013-07-08 18:06:00,
2013-07-08 11:11:00,78.7,55.0,29.90,NW,325,0.0,3.0,44,0.00,,---,0.00,VWS V14.01,2013-07-08 18:11:00,
2013-07-08 11:16:00,78.7,55.0,29.90,SW,230,0.0,1.0,44,0.00,,---,0.00,VWS V14.01,2013-07-08 18:16:00,
2013-07-08 11:21:00,79.2,55.4,29.90,East,85,0.0,0.0,44,0.00,,---,0.00,VWS V14.01,2013-07-08 18:21:00,
2013-07-08 11:26:00,80.0,55.5,29.90,NNW,336,0.0,3.0,43,0.00,,---,0.00,VWS V14.01,2013-07-08 18:26:00,
2013-07-08 11:31:00,80.6,54.8,29.90,WNW,296,1.0,2.0,41,0.00,,---,0.00,VWS V14.01,2013-07-08 18:31:00,
2013-07-08 11:36:00,81.0,55.1,29.90,NW,319,4.0,5.0,41,0.00,,---,0.00,VWS V14.01,2013-07-08 18:36:00,
2013-07-08 11:42:00,80.9,54.3,29.90,West,277,0.0,0.0,40,0.00,,---,0.00,VWS V14.01,2013-07-08 18:42:00,
2013-07-08 11:47:00,81.2,53.9,29.90,WNW,302,0.0,3.0,39,0.00,,---,0.00,VWS V14.01,2013-07-08 18:47:00,
2013-07-08 11:52:00,81.2,53.9,29.90,WNW,299,1.0,1.0,39,0.00,,---,0.00,VWS V14.01,2013-07-08 18:52:00,
2013-07-08 11:57:00,81.0,54.4,29.90,NNE,22,0.0,3.0,40,0.00,,---,0.00,VWS V14.01,2013-07-08 18:57:00,
2013-07-08 12:02:00,81.9,54.5,29.90,NNE,26,0.0,1.0,39,0.00,,---,0.00,VWS V14.01,2013-07-08 19:02:00,
2013-07-08 12:08:00,82.9,54.0,29.89,East,82,0.0,3.0,37,0.00,,---,0.00,VWS V14.01,2013-07-08 19:08:00,
2013-07-08 12:13:00,84.0,53.4,29.90,ENE,65,0.0,3.0,35,0.00,,---,0.00,VWS V14.01,2013-07-08 19:13:00,
2013-07-08 12:18:00,84.8,53.3,29.89,NW,319,0.0,3.0,34,0.00,,---,0.00,VWS V14.01,2013-07-08 19:18:00,
2013-07-08 12:23:00,85.3,53.8,29.89,NNE,20,0.0,1.0,34,0.00,,---,0.00,VWS V14.01,2013-07-08 19:23:00,
2013-07-08 12:28:00,85.9,50.0,29.89,ESE,102,2.0,3.0,29,0.00,,---,0.00,VWS V14.01,2013-07-08 19:28:00,
2013-07-08 12:33:00,86.6,50.6,29.89,NNE,30,0.0,2.0,29,0.00,,---,0.00,VWS V14.01,2013-07-08 19:33:00,
2013-07-08 12:38:00,87.1,51.0,29.89,ENE,74,0.0,3.0,29,0.00,,---,0.00,VWS V14.01,2013-07-08 19:38:00,
2013-07-08 12:43:00,87.7,49.6,29.89,ESE,123,7.0,7.0,27,0.00,,---,0.00,VWS V14.01,2013-07-08 19:43:00,
2013-07-08 12:48:00,87.8,48.7,29.89,ESE,117,0.0,7.0,26,0.00,,---,0.00,VWS V14.01,2013-07-08 19:48:00,
2013-07-08 12:53:00,88.3,48.1,29.89,SE,128,6.0,6.0,25,0.00,,---,0.00,VWS V14.01,2013-07-08 19:53:00,
2013-07-08 12:58:00,88.7,46.2,29.89,WNW,290,1.0,10.0,23,0.00,,---,0.00,VWS V14.01,2013-07-08 19:58:00,
2013-07-08 13:03:00,88.7,47.3,29.89,ESE,104,0.0,1.0,24,0.00,,---,0.00,VWS V14.01,2013-07-08 20:03:00,
2013-07-08 13:08:00,89.2,45.4,29.89,ESE,114,6.0,9.0,22,0.00,,---,0.00,VWS V14.01,2013-07-08 20:08:00,
2013-07-08 13:14:00,89.5,46.8,29.89,West,259,2.0,5.0,23,0.00,,---,0.00,VWS V14.01,2013-07-08 20:14:00,
2013-07-08 13:19:00,89.3,47.8,29.89,ESE,109,1.0,9.0,24,0.00,,---,0.00,VWS V14.01,2013-07-08 20:19:00,
2013-07-08 13:24:00,89.2,47.7,29.89,ESE,110,2.0,5.0,24,0.00,,---,0.00,VWS V14.01,2013-07-08 20:24:00,
2013-07-08 13:29:00,89.4,46.8,29.89,ESE,122,2.0,9.0,23,0.00,,---,0.00,VWS V14.01,2013-07-08 20:29:00,
2013-07-08 13:34:00,89.3,44.3,29.89,SE,132,6.0,9.0,21,0.00,,---,0.00,VWS V14.01,2013-07-08 20:34:00,
2013-07-08 13:39:00,89.2,45.4,29.89,SE,126,6.0,9.0,22,0.00,,---,0.00,VWS V14.01,2013-07-08 20:39:00,
2013-07-08 13:45:00,89.2,44.2,29.88,ESE,120,3.0,6.0,21,0.00,,---,0.00,VWS V14.01,2013-07-08 20:45:00,
2013-07-08 13:50:00,89.5,43.2,29.88,SE,143,3.0,9.0,20,0.00,,---,0.00,VWS V14.01,2013-07-08 20:50:00,
2013-07-08 13:55:00,89.5,44.5,29.88,ENE,67,1.0,4.0,21,0.00,,---,0.00,VWS V14.01,2013-07-08 20:55:00,
2013-07-08 14:01:00,89.5,43.2,29.89,SE,126,0.0,4.0,20,0.00,,---,0.00,VWS V14.01,2013-07-08 21:01:00,
2013-07-08 14:06:00,89.3,44.3,29.88,ENE,63,0.0,6.0,21,0.00,,---,0.00,VWS V14.01,2013-07-08 21:06:00,
2013-07-08 14:11:00,89.8,44.7,29.88,ESE,118,3.0,6.0,21,0.00,,---,0.00,VWS V14.01,2013-07-08 21:11:00,
2013-07-08 14:16:00,89.8,42.1,29.88,ESE,106,4.0,11.0,19,0.00,,---,0.00,VWS V14.01,2013-07-08 21:16:00,
2013-07-08 14:21:00,89.9,44.8,29.88,East,90,3.0,5.0,21,0.00,,---,0.00,VWS V14.01,2013-07-08 21:21:00,
2013-07-08 14:26:00,90.0,48.4,29.88,SE,140,1.0,9.0,24,0.00,,---,0.00,VWS V14.01,2013-07-08 21:26:00,
2013-07-08 14:31:00,89.9,49.4,29.88,NNW,342,0.0,0.0,25,0.00,,---,0.00,VWS V14.01,2013-07-08 21:31:00,
2013-07-08 14:36:00,89.8,50.4,29.88,East,101,5.0,7.0,26,0.00,,---,0.00,VWS V14.01,2013-07-08 21:36:00,
2013-07-08 14:42:00,89.9,49.4,29.88,ESE,106,4.0,6.0,25,0.00,,---,0.00,VWS V14.01,2013-07-08 21:42:00,
2013-07-08 14:47:00,90.0,47.3,29.88,SE,132,6.0,9.0,23,0.00,,---,0.00,VWS V14.01,2013-07-08 21:47:00,
2013-07-08 14:52:00,90.3,49.7,29.88,SSE,148,1.0,6.0,25,0.00,,---,0.00,VWS V14.01,2013-07-08 21:52:00,
2013-07-08 14:58:00,90.2,49.7,29.88,ESE,113,2.0,11.0,25,0.00,,---,0.00,VWS V14.01,2013-07-08 21:58:00,
2013-07-08 15:03:00,90.3,49.7,29.88,ESE,113,2.0,2.0,25,0.00,,---,0.00,VWS V14.01,2013-07-08 22:03:00,
2013-07-08 15:08:00,90.4,48.7,29.88,ESE,121,1.0,10.0,24,0.00,,---,0.00,VWS V14.01,2013-07-08 22:08:00,
2013-07-08 15:13:00,90.7,50.1,29.88,ESE,102,1.0,3.0,25,0.00,,---,0.00,VWS V14.01,2013-07-08 22:13:00,
2013-07-08 15:18:00,90.7,50.1,29.88,SE,127,1.0,7.0,25,0.00,,---,0.00,VWS V14.01,2013-07-08 22:18:00,
2013-07-08 15:23:00,90.7,50.1,29.88,WNW,292,0.0,5.0,25,0.00,,---,0.00,VWS V14.01,2013-07-08 22:23:00,
2013-07-08 15:28:00,90.5,49.9,29.88,SE,130,0.0,8.0,25,0.00,,---,0.00,VWS V14.01,2013-07-08 22:28:00,
2013-07-08 15:33:00,90.8,50.2,29.88,WSW,247,1.0,9.0,25,0.00,,---,0.00,VWS V14.01,2013-07-08 22:33:00,
2013-07-08 15:39:00,90.6,51.0,29.87,ESE,119,2.0,9.0,26,0.00,,---,0.00,VWS V14.01,2013-07-08 22:39:00,
2013-07-08 15:44:00,90.4,49.8,29.88,NW,325,2.0,5.0,25,0.00,,---,0.00,VWS V14.01,2013-07-08 22:44:00,
2013-07-08 15:49:00,90.4,49.8,29.88,SE,135,6.0,6.0,25,0.00,,---,0.00,VWS V14.01,2013-07-08 22:49:00,
2013-07-08 15:54:00,90.7,50.1,29.87,ESE,118,5.0,7.0,25,0.00,,---,0.00,VWS V14.01,2013-07-08 22:54:00,
2013-07-08 16:00:00,90.6,48.9,29.87,North,5,2.0,7.0,24,0.00,,---,0.00,VWS V14.01,2013-07-08 23:00:00,
2013-07-08 16:05:00,90.5,48.8,29.87,East,93,5.0,11.0,24,0.00,,---,0.00,VWS V14.01,2013-07-08 23:05:00,
2013-07-08 16:10:00,90.4,50.9,29.87,ESE,119,12.0,12.0,26,0.00,,---,0.00,VWS V14.01,2013-07-08 23:10:00,
2013-07-08 16:15:00,90.1,49.6,29.87,ESE,102,2.0,10.0,25,0.00,,---,0.00,VWS V14.01,2013-07-08 23:15:00,
2013-07-08 16:20:00,90.1,50.6,29.87,ENE,74,6.0,10.0,26,0.00,,---,0.00,VWS V14.01,2013-07-08 23:20:00,
2013-07-08 16:25:00,90.0,50.5,29.87,ESE,115,5.0,6.0,26,0.00,,---,0.00,VWS V14.01,2013-07-08 23:25:00,
2013-07-08 16:31:00,90.1,50.6,29.87,SE,126,2.0,6.0,26,0.00,,---,0.00,VWS V14.01,2013-07-08 23:31:00,
2013-07-08 16:36:00,90.1,48.5,29.87,ESE,108,2.0,5.0,24,0.00,,---,0.00,VWS V14.01,2013-07-08 23:36:00,
2013-07-08 16:41:00,90.5,49.9,29.87,SE,146,0.0,5.0,25,0.00,,---,0.00,VWS V14.01,2013-07-08 23:41:00,
2013-07-08 16:46:00,90.7,50.1,29.87,ESE,108,0.0,6.0,25,0.00,,---,0.00,VWS V14.01,2013-07-08 23:46:00,
2013-07-08 16:51:00,90.6,50.0,29.87,SE,133,8.0,12.0,25,0.00,,---,0.00,VWS V14.01,2013-07-08 23:51:00,
2013-07-08 16:56:00,89.9,49.4,29.86,SSE,149,2.0,11.0,25,0.00,,---,0.00,VWS V14.01,2013-07-08 23:56:00,
2013-07-08 17:01:00,89.7,51.3,29.86,ESE,119,4.0,11.0,27,0.00,,---,0.00,VWS V14.01,2013-07-09 00:01:00,
2013-07-08 17:06:00,89.8,51.4,29.86,ENE,68,3.0,7.0,27,0.00,,---,0.00,VWS V14.01,2013-07-09 00:06:00,
2013-07-08 17:11:00,89.8,51.4,29.86,NW,321,1.0,2.0,27,0.00,,---,0.00,VWS V14.01,2013-07-09 00:11:00,
2013-07-08 17:17:00,89.9,50.5,29.86,West,279,1.0,6.0,26,0.00,,---,0.00,VWS V14.01,2013-07-09 00:17:00,
2013-07-08 17:22:00,90.1,49.6,29.86,ESE,114,6.0,6.0,25,0.00,,---,0.00,VWS V14.01,2013-07-09 00:22:00,
2013-07-08 17:27:00,89.8,50.4,29.86,SE,128,0.0,6.0,26,0.00,,---,0.00,VWS V14.01,2013-07-09 00:27:00,
2013-07-08 17:32:00,89.9,49.4,29.86,ENE,77,2.0,4.0,25,0.00,,---,0.00,VWS V14.01,2013-07-09 00:32:00,
2013-07-08 17:37:00,89.9,50.5,29.86,South,180,1.0,5.0,26,0.00,,---,0.00,VWS V14.01,2013-07-09 00:37:00,
2013-07-08 17:42:00,89.9,49.4,29.86,ESE,118,0.0,6.0,25,0.00,,---,0.00,VWS V14.01,2013-07-09 00:42:00,
2013-07-08 17:48:00,89.6,50.2,29.86,WSW,254,0.0,7.0,26,0.00,,---,0.00,VWS V14.01,2013-07-09 00:48:00,
2013-07-08 17:53:00,89.3,51.0,29.86,SW,217,0.0,1.0,27,0.00,,---,0.00,VWS V14.01,2013-07-09 00:53:00,
2013-07-08 17:58:00,89.0,50.7,29.86,ESE,115,0.0,7.0,27,0.00,,---,0.00,VWS V14.01,2013-07-09 00:58:00,
2013-07-08 18:04:00,89.1,49.8,29.85,WNW,285,0.0,5.0,26,0.00,,---,0.00,VWS V14.01,2013-07-09 01:04:00,
2013-07-08 18:09:00,89.0,49.7,29.85,WNW,289,0.0,5.0,26,0.00,,---,0.00,VWS V14.01,2013-07-09 01:09:00,
2013-07-08 18:14:00,88.6,49.4,29.85,NNW,333,5.0,13.0,26,0.00,,---,0.00,VWS V14.01,2013-07-09 01:14:00,
2013-07-08 18:19:00,88.3,50.1,29.85,WSW,240,1.0,13.0,27,0.00,,---,0.00,VWS V14.01,2013-07-09 01:19:00,
2013-07-08 18:24:00,88.1,50.9,29.86,North,11,0.0,3.0,28,0.00,,---,0.00,VWS V14.01,2013-07-09 01:24:00,
2013-07-08 18:29:00,87.7,50.6,29.85,NNW,334,2.0,5.0,28,0.00,,---,0.00,VWS V14.01,2013-07-09 01:29:00,
2013-07-08 18:34:00,87.3,49.3,29.86,SE,124,0.0,4.0,27,0.00,,---,0.00,VWS V14.01,2013-07-09 01:34:00,
2013-07-08 18:39:00,86.9,49.9,29.86,WSW,249,1.0,5.0,28,0.00,,---,0.00,VWS V14.01,2013-07-09 01:39:00,
2013-07-08 18:45:00,86.6,49.7,29.86,NW,311,2.0,5.0,28,0.00,,---,0.00,VWS V14.01,2013-07-09 01:45:00,
2013-07-08 18:50:00,86.3,49.4,29.86,SW,236,5.0,6.0,28,0.00,,---,0.00,VWS V14.01,2013-07-09 01:50:00,
2013-07-08 18:55:00,86.0,47.2,29.86,NW,312,0.0,4.0,26,0.00,,---,0.00,VWS V14.01,2013-07-09 01:55:00,
2013-07-08 19:00:00,86.0,47.2,29.86,West,265,0.0,6.0,26,0.00,,---,0.00,VWS V14.01,2013-07-09 02:00:00,
2013-07-08 19:05:00,86.0,48.2,29.87,NW,316,2.0,4.0,27,0.00,,---,0.00,VWS V14.01,2013-07-09 02:05:00,
2013-07-08 19:10:00,86.1,48.2,29.86,East,80,0.0,4.0,27,0.00,,---,0.00,VWS V14.01,2013-07-09 02:10:00,
2013-07-08 19:16:00,86.4,48.5,29.87,East,79,0.0,1.0,27,0.00,,---,0.00,VWS V14.01,2013-07-09 02:16:00,
2013-07-08 19:21:00,86.3,47.4,29.87,WNW,288,0.0,2.0,26,0.00,,---,0.00,VWS V14.01,2013-07-09 02:21:00,
2013-07-08 19:26:00,85.9,48.1,29.87,SE,140,1.0,1.0,27,0.00,,---,0.00,VWS V14.01,2013-07-09 02:26:00,
2013-07-08 19:31:00,85.3,48.5,29.87,ESE,123,1.0,4.0,28,0.00,,---,0.00,VWS V14.01,2013-07-09 02:31:00,
2013-07-08 19:36:00,84.7,47.1,29.87,WNW,287,1.0,5.0,27,0.00,,---,0.00,VWS V14.01,2013-07-09 02:36:00,
2013-07-08 19:41:00,84.2,45.6,29.87,ESE,117,1.0,1.0,26,0.00,,---,0.00,VWS V14.01,2013-07-09 02:41:00,
2013-07-08 19:46:00,83.6,46.1,29.87,ESE,118,0.0,1.0,27,0.00,,---,0.00,VWS V14.01,2013-07-09 02:46:00,
2013-07-08 19:51:00,82.9,47.4,29.87,ESE,118,0.0,0.0,29,0.00,,---,0.00,VWS V14.01,2013-07-09 02:51:00,
2013-07-08 19:56:00,82.2,47.7,29.88,ESE,118,0.0,0.0,30,0.00,,---,0.00,VWS V14.01,2013-07-09 02:56:00,
2013-07-08 20:01:00,81.6,48.9,29.88,SE,138,0.0,0.0,32,0.00,,---,0.00,VWS V14.01,2013-07-09 03:01:00,
2013-07-08 20:07:00,81.1,49.3,29.88,ESE,113,0.0,1.0,33,0.00,,---,0.00,VWS V14.01,2013-07-09 03:07:00,
2013-07-08 20:12:00,80.6,49.7,29.88,ESE,112,0.0,0.0,34,0.00,,---,0.00,VWS V14.01,2013-07-09 03:12:00,
2013-07-08 20:17:00,80.0,49.1,29.88,ESE,112,0.0,0.0,34,0.00,,---,0.00,VWS V14.01,2013-07-09 03:17:00,
2013-07-08 20:22:00,79.3,49.3,29.89,ESE,112,0.0,0.0,35,0.00,,---,0.00,VWS V14.01,2013-07-09 03:22:00,
2013-07-08 20:27:00,78.7,49.5,29.89,ESE,112,0.0,0.0,36,0.00,,---,0.00,VWS V14.01,2013-07-09 03:27:00,
2013-07-08 20:32:00,77.7,49.4,29.89,ESE,112,0.0,0.0,37,0.00,,---,0.00,VWS V14.01,2013-07-09 03:32:00,
2013-07-08 20:37:00,76.9,49.4,29.89,ESE,112,0.0,1.0,38,0.00,,---,0.00,VWS V14.01,2013-07-09 03:37:00,
2013-07-08 20:43:00,75.9,49.2,29.89,ESE,112,0.0,0.0,39,0.00,,---,0.00,VWS V14.01,2013-07-09 03:43:00,
2013-07-08 20:48:00,75.1,49.2,29.89,ESE,112,0.0,1.0,40,0.00,,---,0.00,VWS V14.01,2013-07-09 03:48:00,
2013-07-08 20:53:00,74.3,49.1,29.89,ESE,112,0.0,1.0,41,0.00,,---,0.00,VWS V14.01,2013-07-09 03:53:00,
2013-07-08 20:58:00,73.5,48.4,29.90,ESE,112,0.0,1.0,41,0.00,,---,0.00,VWS V14.01,2013-07-09 03:58:00,
2013-07-08 21:01:00,73.3,48.2,29.90,ESE,112,0.0,1.0,41,0.00,,---,0.00,VWS V14.01,2013-07-09 04:01:00,
2013-07-08 21:06:00,72.5,48.1,29.90,ESE,112,0.0,0.0,42,0.00,,---,0.00,VWS V14.01,2013-07-09 04:06:00,
2013-07-08 21:11:00,71.9,48.2,29.90,ESE,112,0.0,0.0,43,0.00,,---,0.00,VWS V14.01,2013-07-09 04:11:00,
2013-07-08 21:16:00,71.4,48.4,29.90,ESE,112,0.0,0.0,44,0.00,,---,0.00,VWS V14.01,2013-07-09 04:16:00,
2013-07-08 21:21:00,71.0,48.0,29.91,ESE,112,0.0,0.0,44,0.00,,---,0.00,VWS V14.01,2013-07-09 04:21:00,
2013-07-08 21:26:00,70.5,48.2,29.91,ESE,112,0.0,0.0,45,0.00,,---,0.00,VWS V14.01,2013-07-09 04:26:00,
2013-07-08 21:31:00,70.0,47.7,29.91,ESE,112,0.0,0.0,45,0.00,,---,0.00,VWS V14.01,2013-07-09 04:31:00,
2013-07-08 21:36:00,69.5,47.8,29.91,ESE,112,0.0,0.0,46,0.00,,---,0.00,VWS V14.01,2013-07-09 04:36:00,
2013-07-08 21:41:00,69.1,48.0,29.91,ESE,112,0.0,0.0,47,0.00,,---,0.00,VWS V14.01,2013-07-09 04:41:00,
2013-07-08 21:46:00,68.8,47.8,29.91,ESE,112,0.0,0.0,47,0.00,,---,0.00,VWS V14.01,2013-07-09 04:46:00,
2013-07-08 21:51:00,68.5,48.1,29.91,ESE,112,0.0,0.0,48,0.00,,---,0.00,VWS V14.01,2013-07-09 04:51:00,
2013-07-08 21:56:00,68.1,48.2,29.92,ESE,112,0.0,0.0,49,0.00,,---,0.00,VWS V14.01,2013-07-09 04:56:00,
2013-07-08 22:01:00,67.8,48.5,29.92,ESE,112,0.0,0.0,50,0.00,,---,0.00,VWS V14.01,2013-07-09 05:01:00,
2013-07-08 22:06:00,67.4,48.7,29.92,ESE,112,0.0,0.0,51,0.00,,---,0.00,VWS V14.01,2013-07-09 05:06:00,
2013-07-08 22:11:00,67.1,48.4,29.92,ESE,112,0.0,0.0,51,0.00,,---,0.00,VWS V14.01,2013-07-09 05:11:00,
2013-07-08 22:16:00,66.9,48.7,29.93,ESE,112,0.0,0.0,52,0.00,,---,0.00,VWS V14.01,2013-07-09 05:16:00,
2013-07-08 22:21:00,66.6,49.0,29.93,ESE,112,0.0,0.0,53,0.00,,---,0.00,VWS V14.01,2013-07-09 05:21:00,
2013-07-08 22:26:00,66.3,49.2,29.93,ESE,112,0.0,0.0,54,0.00,,---,0.00,VWS V14.01,2013-07-09 05:26:00,
2013-07-08 22:31:00,66.0,49.4,29.93,ESE,112,0.0,0.0,55,0.00,,---,0.00,VWS V14.01,2013-07-09 05:31:00,
2013-07-08 22:36:00,65.8,49.2,29.93,ESE,112,0.0,0.0,55,0.00,,---,0.00,VWS V14.01,2013-07-09 05:36:00,
2013-07-08 22:41:00,65.5,49.4,29.93,ESE,112,0.0,0.0,56,0.00,,---,0.00,VWS V14.01,2013-07-09 05:41:00,
2013-07-08 22:46:00,65.4,49.3,29.93,ESE,112,0.0,0.0,56,0.00,,---,0.00,VWS V14.01,2013-07-09 05:46:00,
2013-07-08 22:51:00,65.4,49.3,29.93,ESE,112,0.0,0.0,56,0.00,,---,0.00,VWS V14.01,2013-07-09 05:51:00,
2013-07-08 22:56:00,65.3,49.2,29.93,ESE,112,0.0,0.0,56,0.00,,---,0.00,VWS V14.01,2013-07-09 05:56:00,
2013-07-08 23:01:00,65.0,49.9,29.93,ESE,112,0.0,0.0,58,0.00,,---,0.00,VWS V14.01,2013-07-09 06:01:00,
2013-07-08 23:06:00,64.8,49.2,29.93,ESE,112,0.0,0.0,57,0.00,,---,0.00,VWS V14.01,2013-07-09 06:06:00,
2013-07-08 23:11:00,64.5,49.4,29.93,ESE,112,0.0,0.0,58,0.00,,---,0.00,VWS V14.01,2013-07-09 06:11:00,
2013-07-08 23:16:00,64.3,48.8,29.93,ESE,112,0.0,0.0,57,0.00,,---,0.00,VWS V14.01,2013-07-09 06:16:00,
2013-07-08 23:21:00,64.2,49.1,29.93,ESE,112,0.0,0.0,58,0.00,,---,0.00,VWS V14.01,2013-07-09 06:21:00,
2013-07-08 23:26:00,64.0,48.9,29.93,ESE,112,0.0,0.0,58,0.00,,---,0.00,VWS V14.01,2013-07-09 06:26:00,
2013-07-08 23:31:00,63.8,49.2,29.93,ESE,112,0.0,0.0,59,0.00,,---,0.00,VWS V14.01,2013-07-09 06:31:00,
2013-07-08 23:36:00,63.6,49.0,29.93,ESE,112,0.0,0.0,59,0.00,,---,0.00,VWS V14.01,2013-07-09 06:36:00,
2013-07-08 23:41:00,63.4,49.3,29.93,ESE,112,0.0,0.0,60,0.00,,---,0.00,VWS V14.01,2013-07-09 06:41:00,
2013-07-08 23:46:00,63.2,49.1,29.93,ESE,112,0.0,0.0,60,0.00,,---,0.00,VWS V14.01,2013-07-09 06:46:00,
2013-07-08 23:51:00,63.0,49.4,29.93,ESE,112,0.0,0.0,61,0.00,,---,0.00,VWS V14.01,2013-07-09 06:51:00,
2013-07-08 23:56:00,62.9,49.7,29.93,ESE,112,0.0,0.0,62,0.00,,---,0.00,VWS V14.01,2013-07-09 06:56:00,